Time;durP1;ratioP1;P1;durP2;ratioP2;P2;SDS_P1;SDS_P2;PMS_P1;PMS_P2;Temp;Humidity;BMP_temperature;BMP_pressure;BME280_temperature;BME280_humidity;BME280_pressure;Samples;Min_cycle;Max_cycle;Signal;HPM_P1;HPM_P2
2022/11/11 00:02:02;;;;;;;18.37;15.47;;;;;;;4.27;100.00;98540.34;4965829;28;20715;-61
2022/11/11 00:04:31;;;;;;;24.83;17.33;;;;;;;4.24;100.00;98531.88;4938072;28;21178;-62
2022/11/11 00:06:59;;;;;;;21.90;14.30;;;;;;;4.27;100.00;98531.66;4999566;28;20375;-61
2022/11/11 00:09:28;;;;;;;18.93;14.37;;;;;;;4.34;100.00;98522.38;5007321;28;20677;-62
2022/11/11 00:11:56;;;;;;;38.80;16.70;;;;;;;4.31;100.00;98533.09;4978920;28;20455;-60
2022/11/11 00:14:24;;;;;;;23.33;16.70;;;;;;;4.35;100.00;98540.63;5008166;28;20218;-62
2022/11/11 00:25:23;;;;;;;25.60;17.43;;;;;;;4.32;100.00;98556.59;4947709;28;20653;-62
2022/11/11 00:27:51;;;;;;;20.90;15.87;;;;;;;4.42;100.00;98558.56;4932808;28;20493;-61
2022/11/11 00:30:20;;;;;;;23.60;15.63;;;;;;;4.45;100.00;98556.53;4953671;28;20224;-62
2022/11/11 00:32:49;;;;;;;27.37;16.13;;;;;;;4.44;100.00;98554.88;4948639;28;20586;-61
2022/11/11 00:38:08;;;;;;;18.93;15.37;;;;;;;4.48;100.00;98551.06;4947164;28;20204;-60
2022/11/11 00:40:36;;;;;;;38.10;19.67;;;;;;;4.56;100.00;98561.03;4948510;28;20258;-60
2022/11/11 00:43:04;;;;;;;24.23;17.07;;;;;;;4.62;100.00;98559.75;4923932;28;20299;-59
2022/11/11 00:45:32;;;;;;;29.13;16.53;;;;;;;4.63;100.00;98549.13;4949393;28;20203;-62
2022/11/11 00:50:58;;;;;;;32.07;17.13;;;;;;;4.68;100.00;98554.03;4947797;28;20939;-61
2022/11/11 00:53:29;;;;;;;33.60;18.70;;;;;;;4.74;100.00;98547.50;4910428;28;20228;-61
2022/11/11 00:55:57;;;;;;;33.27;17.10;;;;;;;4.76;100.00;98546.44;5008624;28;20404;-60
2022/11/11 00:58:27;;;;;;;30.60;18.10;;;;;;;4.75;100.00;98539.50;4979938;28;20529;-60
2022/11/11 01:00:55;;;;;;;30.90;18.10;;;;;;;4.73;100.00;98540.56;5007324;28;20549;-62
2022/11/11 01:03:25;;;;;;;34.13;19.70;;;;;;;4.78;100.00;98546.34;5007250;28;20590;-61
2022/11/11 01:05:53;;;;;;;22.10;16.47;;;;;;;4.79;100.00;98542.75;5008866;28;20404;-61
2022/11/11 01:08:25;;;;;;;43.07;20.30;;;;;;;4.78;100.00;98539.28;4959774;28;20211;-62
2022/11/11 01:10:54;;;;;;;19.30;17.00;;;;;;;4.85;100.00;98541.44;5005878;28;20245;-62
2022/11/11 01:13:25;;;;;;;41.53;19.73;;;;;;;4.85;100.00;98539.66;4982335;28;20210;-62
2022/11/11 01:16:03;;;;;;;31.10;17.93;;;;;;;4.86;100.00;98543.97;5007166;28;21006;-61
2022/11/11 01:18:32;;;;;;;37.93;18.70;;;;;;;4.83;100.00;98546.81;5006912;28;20199;-60
2022/11/11 01:21:01;;;;;;;47.50;21.60;;;;;;;4.87;100.00;98555.28;5008996;28;20203;-60
2022/11/11 01:23:31;;;;;;;47.03;21.63;;;;;;;4.97;100.00;98550.19;4960368;28;20688;-61
2022/11/11 01:26:02;;;;;;;62.00;21.80;;;;;;;4.90;100.00;98545.41;5006065;28;21120;-61
2022/11/11 01:28:37;;;;;;;31.47;18.30;;;;;;;4.96;100.00;98551.16;4991978;28;20290;-62
2022/11/11 01:31:07;;;;;;;50.30;20.83;;;;;;;4.89;100.00;98541.13;5006262;28;20276;-60
2022/11/11 01:33:37;;;;;;;49.23;19.93;;;;;;;4.91;100.00;98543.59;5006603;28;20217;-61
2022/11/11 01:36:07;;;;;;;52.67;20.97;;;;;;;4.95;100.00;98552.09;5008033;28;20326;-62
2022/11/11 01:38:36;;;;;;;38.30;20.10;;;;;;;4.94;100.00;98546.03;4969471;28;20777;-62
2022/11/11 01:41:31;;;;;;;28.17;19.47;;;;;;;4.96;100.00;98552.00;5004634;28;20202;-62
2022/11/11 01:43:54;;;;;;;27.20;18.93;;;;;;;5.00;100.00;98549.97;4995264;28;20342;-63
2022/11/11 01:46:34;;;;;;;33.23;19.17;;;;;;;5.06;100.00;98553.00;4981129;28;20847;-60
2022/11/11 01:49:17;;;;;;;49.07;20.77;;;;;;;5.05;100.00;98550.47;5007844;28;20306;-62
2022/11/11 01:51:49;;;;;;;41.07;21.03;;;;;;;5.04;100.00;98559.28;5006126;28;20489;-62
2022/11/11 01:54:22;;;;;;;66.73;23.10;;;;;;;5.02;100.00;98548.06;5006117;28;20371;-61
2022/11/11 01:56:55;;;;;;;83.40;25.67;;;;;;;5.01;100.00;98560.38;4979069;28;20230;-61
2022/11/11 01:59:24;;;;;;;32.37;19.20;;;;;;;5.00;100.00;98544.72;5008339;28;20521;-61
2022/11/11 02:01:52;;;;;;;59.67;21.93;;;;;;;5.01;100.00;98562.16;4979959;28;20383;-61
2022/11/11 02:07:09;;;;;;;46.70;19.60;;;;;;;5.01;100.00;98567.41;5009778;28;20581;-61
2022/11/11 02:09:41;;;;;;;34.13;19.53;;;;;;;4.95;100.00;98562.63;4959483;28;21251;-61
2022/11/11 02:14:59;;;;;;;31.20;18.30;;;;;;;5.05;100.00;98568.84;5004894;28;20398;-61
2022/11/11 02:17:30;;;;;;;50.43;21.67;;;;;;;5.12;100.00;98566.63;5008551;28;20223;-61
2022/11/11 02:20:01;;;;;;;50.77;23.77;;;;;;;5.10;100.00;98565.88;5006640;28;21274;-62
2022/11/11 02:22:36;;;;;;;39.00;19.07;;;;;;;5.01;100.00;98559.53;5008078;28;20280;-61
2022/11/11 02:25:08;;;;;;;35.37;20.30;;;;;;;5.01;100.00;98573.50;5006382;28;20233;-61
2022/11/11 02:27:39;;;;;;;27.70;18.70;;;;;;;5.04;100.00;98577.69;4958807;28;20596;-62
2022/11/11 02:30:14;;;;;;;66.27;25.13;;;;;;;5.04;100.00;98569.81;5007103;28;20653;-59
2022/11/11 02:32:44;;;;;;;40.00;17.97;;;;;;;4.91;100.00;98564.63;5007084;28;20206;-61
2022/11/11 02:35:15;;;;;;;44.03;19.63;;;;;;;4.86;100.00;98559.72;5007655;28;20226;-62
2022/11/11 02:37:45;;;;;;;29.73;18.50;;;;;;;4.83;100.00;98559.09;5007749;28;20324;-62
2022/11/11 02:40:17;;;;;;;26.47;17.40;;;;;;;4.77;100.00;98553.34;5010975;28;20222;-62
2022/11/11 02:42:45;;;;;;;32.27;19.40;;;;;;;4.73;100.00;98551.06;4961893;28;20431;-61
2022/11/11 02:45:14;;;;;;;24.20;16.70;;;;;;;4.75;100.00;98557.06;5002811;28;20214;-61
2022/11/11 02:47:42;;;;;;;20.47;16.50;;;;;;;4.74;100.00;98558.03;5012475;28;20719;-60
2022/11/11 02:50:10;;;;;;;39.17;19.83;;;;;;;4.74;100.00;98560.66;5009158;28;20227;-61
2022/11/11 02:52:38;;;;;;;34.17;19.23;;;;;;;4.74;100.00;98568.53;5011717;28;20312;-63
2022/11/11 02:55:07;;;;;;;55.63;20.43;;;;;;;4.62;100.00;98565.00;5009430;28;20480;-62
2022/11/11 02:57:37;;;;;;;48.80;18.50;;;;;;;4.55;100.00;98561.97;4963393;28;20614;-64
2022/11/11 03:00:07;;;;;;;31.80;19.73;;;;;;;4.59;100.00;98555.53;5009539;28;20226;-62
2022/11/11 03:02:35;;;;;;;39.23;18.60;;;;;;;4.60;100.00;98557.22;5011367;28;20199;-61
2022/11/11 03:05:04;;;;;;;22.83;17.83;;;;;;;4.58;100.00;98559.13;5011270;28;20244;-62
2022/11/11 03:07:32;;;;;;;30.13;19.70;;;;;;;4.54;100.00;98570.81;5009972;28;20708;-60
2022/11/11 03:10:00;;;;;;;48.87;19.50;;;;;;;4.55;100.00;98569.84;5010707;28;20373;-62
2022/11/11 03:12:29;;;;;;;30.70;17.50;;;;;;;4.55;100.00;98567.22;5009955;28;20389;-62
2022/11/11 03:14:58;;;;;;;31.83;17.37;;;;;;;4.62;100.00;98570.25;4961712;28;20334;-62
2022/11/11 03:17:41;;;;;;;21.87;17.17;;;;;;;4.67;100.00;98580.41;5014037;28;20350;-61
2022/11/11 03:23:00;;;;;;;27.67;15.43;;;;;;;4.60;100.00;98570.34;5023551;28;20370;-61
2022/11/11 03:25:38;;;;;;;41.90;17.33;;;;;;;4.58;100.00;98571.44;5021365;28;21576;-61
2022/11/11 03:28:07;;;;;;;27.10;17.03;;;;;;;4.48;100.00;98566.81;4986379;28;20769;-62
2022/11/11 03:30:38;;;;;;;44.57;16.70;;;;;;;4.48;100.00;98573.88;5022079;28;20224;-63
2022/11/11 03:33:06;;;;;;;21.93;15.27;;;;;;;4.52;100.00;98584.97;5020442;28;20229;-63
2022/11/11 03:35:35;;;;;;;37.23;17.53;;;;;;;4.39;100.00;98592.91;5022713;28;20503;-61
2022/11/11 03:38:15;;;;;;;16.77;14.47;;;;;;;4.37;100.00;98587.75;5019197;28;20667;-62
2022/11/11 03:40:43;;;;;;;23.57;15.67;;;;;;;4.33;100.00;98587.13;5023744;28;20527;-62
2022/11/11 03:43:12;;;;;;;37.60;15.20;;;;;;;4.44;100.00;98588.16;5018604;28;21679;-61
2022/11/11 03:45:42;;;;;;;16.40;14.00;;;;;;;4.48;100.00;98589.63;4973013;28;20218;-60
2022/11/11 03:48:10;;;;;;;26.23;16.13;;;;;;;4.54;100.00;98602.31;5020616;28;20221;-61
2022/11/11 03:50:38;;;;;;;18.67;13.80;;;;;;;4.44;100.00;98606.53;5024778;28;20239;-62
2022/11/11 03:53:07;;;;;;;37.20;15.70;;;;;;;4.39;100.00;98609.47;5023115;28;20221;-60
2022/11/11 03:55:35;;;;;;;15.60;12.30;;;;;;;4.41;100.00;98610.22;5023311;28;20557;-62
2022/11/11 03:58:03;;;;;;;30.87;16.30;;;;;;;4.37;100.00;98614.00;5022531;28;20230;-62
2022/11/11 04:00:32;;;;;;;22.40;14.60;;;;;;;4.37;100.00;98597.44;4970191;28;20979;-62
2022/11/11 04:11:26;;;;;;;27.07;15.27;;;;;;;4.41;100.00;98585.78;5020073;28;20725;-61
2022/11/11 04:16:42;;;;;;;30.87;15.43;;;;;;;4.33;100.00;98575.81;4973982;28;20686;-60
2022/11/11 04:21:58;;;;;;;28.50;16.77;;;;;;;4.37;100.00;98579.88;4995711;28;20227;-61
2022/11/11 04:27:14;;;;;;;24.83;15.27;;;;;;;4.43;100.00;98576.00;5007904;28;21046;-60
2022/11/11 04:29:41;;;;;;;21.43;16.37;;;;;;;4.51;100.00;98580.66;5009361;28;21181;-59
2022/11/11 04:35:00;;;;;;;82.27;21.07;;;;;;;4.53;100.00;98586.66;4951830;28;20853;-61
2022/11/11 04:37:32;;;;;;;56.20;18.20;;;;;;;4.54;100.00;98594.41;5018875;28;20226;-61
2022/11/11 04:42:46;;;;;;;35.60;17.03;;;;;;;4.53;100.00;98589.28;5001138;28;20206;-61
2022/11/11 04:45:30;;;;;;;39.70;18.17;;;;;;;4.51;100.00;98601.66;5023627;28;20211;-61
2022/11/11 04:48:00;;;;;;;37.43;17.97;;;;;;;4.52;100.00;98593.69;5021278;28;20208;-64
2022/11/11 04:50:31;;;;;;;64.93;21.43;;;;;;;4.51;100.00;98604.28;4958520;28;22530;-63
2022/11/11 04:53:00;;;;;;;35.73;17.60;;;;;;;4.46;100.00;98607.28;5017685;28;20482;-63
2022/11/11 04:58:14;;;;;;;42.63;18.50;;;;;;;4.50;100.00;98611.34;4998353;28;20643;-62
2022/11/11 05:00:42;;;;;;;31.60;15.43;;;;;;;4.43;100.00;98612.75;5017721;28;20222;-62
2022/11/11 05:03:17;;;;;;;50.33;15.80;;;;;;;4.48;100.00;98616.69;5001059;28;20777;-64
2022/11/11 05:11:34;;;;;;;24.67;15.07;;;;;;;4.38;100.00;98626.19;4939192;28;20323;-61
2022/11/11 05:22:26;;;;;;;31.27;15.50;;;;;;;4.48;100.00;98647.38;4955090;28;20551;-62
2022/11/11 05:27:37;;;;;;;32.80;14.20;;;;;;;4.44;100.00;98641.47;4915055;28;20217;-61
2022/11/11 05:30:07;;;;;;;32.60;15.13;;;;;;;4.44;100.00;98638.84;4941264;28;20398;-62
2022/11/11 05:32:35;;;;;;;71.97;19.83;;;;;;;4.38;100.00;98641.09;4913626;28;20216;-61
2022/11/11 05:35:09;;;;;;;32.53;16.90;;;;;;;4.30;100.00;98629.34;4927907;28;20201;-61
2022/11/11 05:37:39;;;;;;;26.73;15.47;;;;;;;4.40;100.00;98633.97;4932560;28;21412;-62
2022/11/11 05:40:08;;;;;;;28.47;14.57;;;;;;;4.41;100.00;98641.72;4924427;28;20229;-62
2022/11/11 05:42:41;;;;;;;34.33;16.13;;;;;;;4.42;100.00;98647.81;4944324;28;20668;-63
2022/11/11 05:45:17;;;;;;;37.97;16.33;;;;;;;4.39;100.00;98646.22;4949820;28;20628;-63
2022/11/11 05:47:46;;;;;;;21.80;15.03;;;;;;;4.49;100.00;98657.75;4996754;28;20200;-62
2022/11/11 05:50:14;;;;;;;54.97;19.10;;;;;;;4.57;100.00;98659.81;5011841;28;22300;-65
2022/11/11 05:52:49;;;;;;;30.50;17.33;;;;;;;4.59;100.00;98660.56;4964428;28;20252;-62
2022/11/11 05:55:17;;;;;;;47.00;18.67;;;;;;;4.66;100.00;98670.63;5014958;28;21712;-60
2022/11/11 05:57:45;;;;;;;51.27;18.57;;;;;;;4.67;100.00;98674.91;5011106;28;20219;-64
2022/11/11 06:00:14;;;;;;;27.33;17.97;;;;;;;4.72;100.00;98680.69;4993895;28;20776;-63
2022/11/11 06:02:43;;;;;;;33.93;18.63;;;;;;;4.78;100.00;98672.38;5011037;28;20226;-64
2022/11/11 06:05:11;;;;;;;44.53;19.40;;;;;;;4.76;100.00;98687.41;5012925;28;20876;-65
2022/11/11 06:07:40;;;;;;;34.33;16.63;;;;;;;4.84;100.00;98682.44;4973940;28;20785;-67
2022/11/11 06:13:06;;;;;;;32.67;16.13;;;;;;;4.77;100.00;98692.53;5018223;28;20203;-62
2022/11/11 06:15:35;;;;;;;22.97;16.33;;;;;;;4.80;100.00;98694.13;4994817;28;20203;-62
2022/11/11 06:18:04;;;;;;;22.40;15.40;;;;;;;4.87;100.00;98697.97;5015710;28;21043;-61
2022/11/11 06:20:34;;;;;;;19.37;15.33;;;;;;;4.97;100.00;98703.41;5004820;28;20262;-64
2022/11/11 06:23:02;;;;;;;29.43;15.73;;;;;;;4.88;100.00;98707.53;4966472;28;20487;-62
2022/11/11 06:28:20;;;;;;;34.50;18.03;;;;;;;4.96;100.00;98714.00;4993687;28;20203;-61
2022/11/11 06:30:48;;;;;;;40.67;17.43;;;;;;;4.95;100.00;98717.59;5010583;28;20440;-63
2022/11/11 06:33:18;;;;;;;28.00;15.30;;;;;;;4.91;100.00;98720.44;4993996;28;20290;-61
2022/11/11 06:35:47;;;;;;;24.23;15.73;;;;;;;4.90;100.00;98724.03;5009595;28;20674;-61
2022/11/11 06:38:15;;;;;;;28.40;15.27;;;;;;;4.96;100.00;98729.78;5015133;28;20610;-62
2022/11/11 06:40:45;;;;;;;32.27;16.60;;;;;;;4.90;100.00;98717.91;4944297;28;20222;-62
2022/11/11 06:43:13;;;;;;;24.10;15.53;;;;;;;5.09;100.00;98720.06;5014220;28;20684;-60
2022/11/11 06:45:41;;;;;;;34.10;17.97;;;;;;;4.95;100.00;98721.06;5013160;28;20210;-61
2022/11/11 06:48:09;;;;;;;28.13;15.67;;;;;;;4.92;100.00;98718.63;5015780;28;20420;-63
2022/11/11 06:50:38;;;;;;;53.17;18.10;;;;;;;4.87;100.00;98713.72;4994331;28;20352;-59
2022/11/11 06:53:06;;;;;;;20.57;15.83;;;;;;;4.90;100.00;98723.16;5018371;28;20536;-57
2022/11/11 06:55:35;;;;;;;22.33;16.97;;;;;;;4.96;100.00;98716.63;4997101;28;20222;-59
2022/11/11 06:58:08;;;;;;;29.63;17.90;;;;;;;4.91;100.00;98695.94;4975916;28;20239;-58
2022/11/11 07:00:37;;;;;;;23.67;15.87;;;;;;;5.01;100.00;98710.13;5011178;28;20803;-61
2022/11/11 07:03:07;;;;;;;29.17;17.53;;;;;;;5.00;100.00;98704.97;5018876;28;20215;-62
2022/11/11 07:05:35;;;;;;;40.20;18.37;;;;;;;5.06;100.00;98700.09;5001113;28;20211;-61
2022/11/11 07:08:04;;;;;;;34.03;18.57;;;;;;;5.06;100.00;98699.25;5015665;28;20625;-60
2022/11/11 07:10:37;;;;;;;28.93;18.83;;;;;;;5.04;100.00;98695.91;5007724;28;20358;-60
2022/11/11 07:13:07;;;;;;;28.97;18.40;;;;;;;5.10;100.00;98695.44;4971054;28;20298;-61
2022/11/11 07:15:36;;;;;;;25.03;16.23;;;;;;;5.07;100.00;98698.31;5005612;28;20215;-63
2022/11/11 07:18:04;;;;;;;38.23;19.63;;;;;;;5.01;100.00;98707.50;5022982;28;20235;-61
2022/11/11 07:20:33;;;;;;;38.83;19.50;;;;;;;4.92;100.00;98703.72;5007256;28;20227;-62
2022/11/11 07:23:01;;;;;;;40.77;19.73;;;;;;;4.99;100.00;98706.75;5010133;28;20294;-60
2022/11/11 07:25:30;;;;;;;36.60;17.90;;;;;;;4.98;100.00;98689.31;5010150;28;20214;-61
2022/11/11 07:27:58;;;;;;;68.83;19.33;;;;;;;4.96;100.00;98704.34;4965314;28;20254;-57
2022/11/11 07:30:28;;;;;;;26.23;16.67;;;;;;;5.01;100.00;98696.97;5014546;28;20317;-60
2022/11/11 07:32:57;;;;;;;35.67;18.10;;;;;;;5.05;100.00;98694.94;5014223;28;20384;-59
2022/11/11 07:35:25;;;;;;;31.97;15.90;;;;;;;5.07;100.00;98695.69;5012897;28;20702;-63
2022/11/11 07:37:53;;;;;;;51.00;21.53;;;;;;;5.15;100.00;98697.75;5000759;28;20390;-60
2022/11/11 07:40:22;;;;;;;48.17;20.73;;;;;;;5.11;100.00;98697.13;5014384;28;20392;-58
2022/11/11 07:42:50;;;;;;;30.37;17.70;;;;;;;5.13;100.00;98702.28;4956759;28;20426;-60
2022/11/11 07:45:18;;;;;;;32.93;18.33;;;;;;;5.29;100.00;98709.88;5012886;28;20854;-60
2022/11/11 07:47:47;;;;;;;57.60;19.37;;;;;;;5.29;100.00;98712.50;5013400;28;20404;-60
2022/11/11 07:50:16;;;;;;;48.30;18.50;;;;;;;5.32;100.00;98709.66;5014965;28;20250;-59
2022/11/11 07:52:48;;;;;;;36.87;18.17;;;;;;;5.40;100.00;98715.19;4993370;28;20207;-59
2022/11/11 07:55:17;;;;;;;32.83;17.60;;;;;;;5.42;100.00;98718.53;5017157;28;20238;-60
2022/11/11 07:57:45;;;;;;;42.40;20.17;;;;;;;5.38;100.00;98724.97;4993819;28;20419;-60
2022/11/11 08:00:14;;;;;;;33.77;19.63;;;;;;;5.46;100.00;98719.16;4972012;28;20478;-61
2022/11/11 08:02:48;;;;;;;29.00;18.57;;;;;;;5.59;100.00;98721.72;5011289;28;20563;-59
2022/11/11 08:05:16;;;;;;;30.90;17.80;;;;;;;5.59;100.00;98719.91;5013417;28;20270;-60
2022/11/11 08:07:44;;;;;;;54.33;21.23;;;;;;;5.44;100.00;98718.44;4993009;28;20199;-59
2022/11/11 08:10:13;;;;;;;29.73;17.67;;;;;;;5.41;100.00;98716.88;5013322;28;20221;-60
2022/11/11 08:15:27;;;;;;;27.03;17.43;;;;;;;5.56;100.00;98735.09;4970801;28;20227;-60
2022/11/11 08:17:56;;;;;;;32.93;19.40;;;;;;;5.49;100.00;98737.34;5015004;28;20211;-59
2022/11/11 08:20:24;;;;;;;29.73;17.47;;;;;;;5.56;100.00;98727.22;5017993;28;20233;-59
2022/11/11 08:22:54;;;;;;;32.67;17.00;;;;;;;5.57;100.00;98734.16;4998018;28;20947;-62
2022/11/11 08:25:42;;;;;;;29.67;18.13;;;;;;;5.59;100.00;98735.69;5003881;28;20299;-62
2022/11/11 08:28:10;;;;;;;69.47;21.20;;;;;;;5.57;100.00;98742.84;4994274;28;22390;-58
2022/11/11 08:30:38;;;;;;;41.97;18.43;;;;;;;5.54;100.00;98740.47;4962117;28;21810;-61
2022/11/11 08:33:08;;;;;;;30.83;18.40;;;;;;;5.55;100.00;98736.88;4979612;28;20794;-63
2022/11/11 08:35:59;;;;;;;31.63;19.50;;;;;;;5.49;100.00;98738.19;4976033;28;20207;-63
2022/11/11 08:38:27;;;;;;;31.27;18.40;;;;;;;5.57;100.00;98739.41;5016973;28;20206;-62
2022/11/11 08:41:00;;;;;;;22.47;16.03;;;;;;;5.51;100.00;98745.94;4979764;28;20231;-62
2022/11/11 08:43:31;;;;;;;28.43;17.13;;;;;;;5.51;100.00;98748.56;5017632;28;20734;-59
2022/11/11 08:46:05;;;;;;;54.57;21.73;;;;;;;5.48;100.00;98747.00;5014227;28;20222;-61
2022/11/11 08:48:37;;;;;;;89.97;20.63;;;;;;;5.72;100.00;98753.22;4972858;28;20214;-61
2022/11/11 08:51:05;;;;;;;37.00;19.13;;;;;;;5.73;100.00;98755.72;5012775;28;20217;-59
2022/11/11 08:53:33;;;;;;;75.63;24.47;;;;;;;5.65;100.00;98758.06;5016659;28;20203;-60
2022/11/11 08:56:03;;;;;;;31.47;18.33;;;;;;;5.77;100.00;98751.91;4993213;28;20215;-59
2022/11/11 08:58:31;;;;;;;38.87;20.07;;;;;;;5.75;100.00;98759.06;4995848;28;20238;-59
2022/11/11 09:01:00;;;;;;;49.20;21.07;;;;;;;5.78;100.00;98752.75;5015031;28;20325;-60
2022/11/11 09:03:29;;;;;;;34.37;19.37;;;;;;;5.79;100.00;98755.25;5018700;28;20742;-59
2022/11/11 09:05:58;;;;;;;47.50;20.57;;;;;;;6.02;100.00;98754.50;4964727;28;20422;-61
2022/11/11 09:08:26;;;;;;;24.90;17.93;;;;;;;6.35;100.00;98756.38;5018526;28;20199;-62
2022/11/11 09:10:55;;;;;;;39.63;21.63;;;;;;;6.40;100.00;98761.25;4995575;28;20219;-62
2022/11/11 09:13:23;;;;;;;29.33;18.60;;;;;;;6.51;100.00;98757.81;4995778;28;20783;-62
2022/11/11 09:15:53;;;;;;;43.53;20.03;;;;;;;6.46;100.00;98765.22;5014487;28;20214;-61
2022/11/11 09:18:21;;;;;;;25.10;19.50;;;;;;;6.72;100.00;98763.19;5015676;28;20526;-59
2022/11/11 09:20:50;;;;;;;24.87;18.67;;;;;;;6.72;100.00;98773.72;4969121;28;20223;-62
2022/11/11 09:23:19;;;;;;;24.10;18.10;;;;;;;6.86;100.00;98775.28;5015205;28;20379;-62
2022/11/11 09:25:47;;;;;;;31.60;18.20;;;;;;;6.59;100.00;98768.56;5013686;28;20496;-60
2022/11/11 09:28:16;;;;;;;31.50;17.60;;;;;;;6.49;100.00;98771.09;4994612;28;20206;-61
2022/11/11 09:30:44;;;;;;;27.67;18.63;;;;;;;6.27;100.00;98771.91;5013848;28;20828;-62
2022/11/11 09:33:15;;;;;;;30.13;20.00;;;;;;;6.37;100.00;98778.16;5015077;28;20298;-60
2022/11/11 09:35:43;;;;;;;20.37;16.67;;;;;;;6.49;100.00;98775.50;4970801;28;20538;-61
2022/11/11 09:38:11;;;;;;;18.20;16.40;;;;;;;6.55;100.00;98777.66;5013655;28;20731;-61
2022/11/11 09:40:49;;;;;;;18.47;16.57;;;;;;;6.66;100.00;98777.69;5013896;28;20238;-59
2022/11/11 09:43:25;;;;;;;23.20;16.80;;;;;;;6.54;100.00;98785.69;4994464;28;21845;-59
2022/11/11 09:46:05;;;;;;;22.80;17.10;;;;;;;6.69;100.00;98794.22;5011671;28;20237;-60
2022/11/11 09:48:41;;;;;;;18.83;16.43;;;;;;;6.64;100.00;98779.59;5010310;28;20214;-60
2022/11/11 09:51:16;;;;;;;20.70;17.40;;;;;;;6.72;100.00;98779.00;4969033;28;21431;-61
2022/11/11 09:53:48;;;;;;;20.90;17.10;;;;;;;6.99;100.00;98776.94;5015718;28;20821;-60
2022/11/11 09:56:19;;;;;;;18.97;16.57;;;;;;;6.80;100.00;98784.50;5014735;28;20321;-61
2022/11/11 09:59:03;;;;;;;16.30;14.80;;;;;;;6.78;100.00;98782.94;4991136;28;20234;-60
2022/11/11 10:01:36;;;;;;;18.07;15.63;;;;;;;6.98;100.00;98793.69;5015651;28;20310;-57
2022/11/11 10:04:12;;;;;;;17.60;15.70;;;;;;;7.00;100.00;98794.41;5013933;28;20210;-60
2022/11/11 10:06:40;;;;;;;18.60;16.63;;;;;;;6.93;100.00;98791.44;5016406;28;20248;-62
2022/11/11 10:09:18;;;;;;;16.17;14.67;;;;;;;6.98;100.00;98805.09;4963982;28;20411;-60
2022/11/11 10:11:54;;;;;;;17.67;15.43;;;;;;;6.86;100.00;98804.25;5015802;28;20462;-59
2022/11/11 10:14:22;;;;;;;17.87;15.97;;;;;;;7.32;100.00;98806.84;4993998;28;21422;-61
2022/11/11 10:16:57;;;;;;;16.70;15.00;;;;;;;7.55;100.00;98799.69;5018608;28;20879;-61
2022/11/11 10:19:29;;;;;;;16.40;14.87;;;;;;;7.60;100.00;98800.19;5014561;28;20632;-61
2022/11/11 10:22:00;;;;;;;15.43;13.90;;;;;;;7.61;100.00;98795.72;4987577;28;21309;-58
2022/11/11 10:24:49;;;;;;;16.50;14.90;;;;;;;7.73;100.00;98781.53;5014547;28;20626;-63
2022/11/11 10:27:21;;;;;;;15.87;14.33;;;;;;;7.38;100.00;98780.81;5017775;28;20470;-61
2022/11/11 10:29:50;;;;;;;15.10;13.70;;;;;;;7.52;100.00;98768.28;5000705;28;20223;-61
2022/11/11 10:32:20;;;;;;;13.90;12.60;;;;;;;7.32;100.00;98785.75;5019206;28;20229;-62
2022/11/11 10:34:49;;;;;;;15.27;13.87;;;;;;;7.37;100.00;98784.41;5020367;28;21697;-60
2022/11/11 10:37:20;;;;;;;14.30;13.00;;;;;;;7.31;100.00;98784.06;5018152;28;20219;-61
2022/11/11 10:39:59;;;;;;;14.90;13.60;;;;;;;7.22;100.00;98772.47;4915250;28;20515;-61
2022/11/11 10:42:28;;;;;;;14.00;12.80;;;;;;;7.02;100.00;98774.91;4995240;28;20202;-62
2022/11/11 10:45:00;;;;;;;15.07;13.77;;;;;;;6.98;100.00;98762.06;5017771;28;22205;-61
2022/11/11 10:47:45;;;;;;;15.37;13.97;;;;;;;6.89;100.00;98758.41;4997392;28;20224;-61
2022/11/11 10:50:16;;;;;;;14.23;13.03;;;;;;;6.80;100.00;98749.41;5014815;28;21737;-60
2022/11/11 10:52:47;;;;;;;14.93;13.63;;;;;;;6.88;100.00;98748.81;5014522;28;20694;-58
2022/11/11 10:55:20;;;;;;;14.63;13.30;;;;;;;6.79;100.00;98750.38;4978182;28;20208;-62
2022/11/11 10:57:53;;;;;;;14.27;12.97;;;;;;;6.84;100.00;98755.28;5019067;28;20235;-61
2022/11/11 11:00:21;;;;;;;13.70;12.60;;;;;;;6.90;100.00;98760.06;5020155;28;20429;-63
2022/11/11 11:02:58;;;;;;;14.37;13.07;;;;;;;7.00;100.00;98760.16;5001662;28;21019;-60
2022/11/11 11:05:29;;;;;;;14.73;13.23;;;;;;;6.99;100.00;98771.66;5021047;28;20285;-61
2022/11/11 11:08:00;;;;;;;14.23;13.03;;;;;;;7.10;100.00;98761.13;5022207;28;20214;-62
2022/11/11 11:10:34;;;;;;;13.80;12.60;;;;;;;6.99;100.00;98769.88;5017188;28;20344;-62
2022/11/11 11:13:07;;;;;;;15.10;13.80;;;;;;;7.00;100.00;98763.66;4971212;28;20678;-62
2022/11/11 11:15:48;;;;;;;15.37;13.93;;;;;;;7.03;100.00;98765.22;5019081;28;20404;-60
2022/11/11 11:18:17;;;;;;;13.40;12.30;;;;;;;7.03;100.00;98768.66;4997976;28;20210;-62
2022/11/11 11:20:56;;;;;;;14.70;13.40;;;;;;;7.15;100.00;98769.50;5021972;28;20230;-59
2022/11/11 11:23:38;;;;;;;15.20;13.90;;;;;;;7.33;100.00;98775.09;5017928;28;20280;-61
2022/11/11 11:26:09;;;;;;;14.10;13.00;;;;;;;7.43;100.00;98772.53;5020839;28;20230;-64
2022/11/11 11:28:53;;;;;;;13.80;12.70;;;;;;;7.70;100.00;98760.69;4976249;28;20222;-58
2022/11/11 11:31:35;;;;;;;15.70;14.27;;;;;;;7.46;100.00;98751.19;4995997;28;20195;-61
2022/11/11 11:34:04;;;;;;;14.07;12.83;;;;;;;7.45;100.00;98753.94;5019794;28;20215;-60
2022/11/11 11:36:32;;;;;;;13.63;12.50;;;;;;;7.55;100.00;98744.31;5019792;28;20207;-61
2022/11/11 11:39:00;;;;;;;14.77;13.47;;;;;;;7.50;100.00;98744.69;5021116;28;20234;-61
2022/11/11 11:41:39;;;;;;;14.03;12.93;;;;;;;7.65;100.00;98750.53;5018025;28;20226;-59
2022/11/11 11:44:27;;;;;;;15.73;14.33;;;;;;;7.80;100.00;98747.56;4972314;28;20215;-61
2022/11/11 11:47:01;;;;;;;15.13;13.87;;;;;;;7.58;100.00;98745.88;5016429;28;20441;-58
2022/11/11 11:49:41;;;;;;;14.47;13.23;;;;;;;7.62;100.00;98744.66;4996383;28;20836;-61
2022/11/11 11:52:13;;;;;;;14.97;13.60;;;;;;;7.67;100.00;98739.81;5017314;28;20217;-61
2022/11/11 11:54:55;;;;;;;15.13;13.80;;;;;;;7.68;100.00;98733.59;5017511;28;20203;-61
2022/11/11 11:57:31;;;;;;;14.53;13.20;;;;;;;7.53;100.00;98746.22;5015943;28;20212;-62
2022/11/11 12:00:04;;;;;;;14.30;13.13;;;;;;;7.57;100.00;98757.38;4976122;28;20219;-62
2022/11/11 12:02:46;;;;;;;14.13;12.93;;;;;;;7.85;100.00;98742.72;4997769;28;20773;-61
2022/11/11 12:05:20;;;;;;;14.60;13.30;;;;;;;7.76;100.00;98746.97;5019580;28;20210;-62
2022/11/11 12:07:59;;;;;;;13.63;12.27;;;;;;;7.81;100.00;98747.44;5018480;28;20203;-60
2022/11/11 12:10:35;;;;;;;13.70;12.50;;;;;;;7.50;100.00;98744.69;5016286;28;20223;-62
2022/11/11 12:13:19;;;;;;;14.47;13.10;;;;;;;7.77;100.00;98739.91;5019271;28;20410;-61
2022/11/11 12:15:57;;;;;;;14.70;13.47;;;;;;;7.92;100.00;98741.25;4952360;28;20206;-64
2022/11/11 12:18:43;;;;;;;15.47;14.07;;;;;;;7.73;100.00;98735.84;4992133;28;20232;-62
2022/11/11 12:21:14;;;;;;;14.20;12.80;;;;;;;7.77;100.00;98732.84;4998823;28;23571;-61
2022/11/11 12:23:54;;;;;;;15.83;14.33;;;;;;;7.76;100.00;98736.41;5007973;28;20211;-63
2022/11/11 12:26:27;;;;;;;15.93;14.50;;;;;;;7.75;100.00;98729.47;5024225;28;20615;-61
2022/11/11 12:29:14;;;;;;;15.27;13.83;;;;;;;7.78;100.00;98726.59;5025378;28;20391;-61
2022/11/11 12:31:55;;;;;;;14.87;13.57;;;;;;;7.88;100.00;98733.75;4991767;28;20218;-61
2022/11/11 12:34:34;;;;;;;15.53;14.13;;;;;;;8.09;100.00;98739.84;5003882;28;20735;-62
2022/11/11 12:37:08;;;;;;;17.27;15.75;;;;;;;8.05;100.00;98738.41;5002029;28;20457;-61
2022/11/11 12:39:57;;;;;;;15.47;14.07;;;;;;;8.12;100.00;98730.81;4985253;28;22270;-64
2022/11/11 12:42:35;;;;;;;15.67;14.17;;;;;;;7.94;100.00;98725.31;5020398;28;21694;-59
2022/11/11 12:45:10;;;;;;;16.27;14.67;;;;;;;7.84;100.00;98727.03;5001536;28;20560;-59
2022/11/11 12:47:48;;;;;;;15.93;14.47;;;;;;;7.81;100.00;98721.06;4961966;28;20995;-58
2022/11/11 12:50:21;;;;;;;17.87;16.00;;;;;;;7.88;100.00;98723.19;5015224;28;20422;-59